sensor_id;sensor_type;location;lat;lon;timestamp;temperature;humidity
13458;DHT22;6801;53.018;11.560;2023-10-13T00:01:22;14.50;80.20
13458;DHT22;6801;53.018;11.560;2023-10-13T00:03:50;14.50;80.40
13458;DHT22;6801;53.018;11.560;2023-10-13T00:06:18;14.50;80.50
13458;DHT22;6801;53.018;11.560;2023-10-13T00:08:45;14.50;80.70
13458;DHT22;6801;53.018;11.560;2023-10-13T00:11:12;14.50;80.70
13458;DHT22;6801;53.018;11.560;2023-10-13T00:13:39;14.50;80.90
13458;DHT22;6801;53.018;11.560;2023-10-13T00:16:16;14.50;81.10
13458;DHT22;6801;53.018;11.560;2023-10-13T00:18:49;14.50;81.20
13458;DHT22;6801;53.018;11.560;2023-10-13T00:21:20;14.50;81.30
13458;DHT22;6801;53.018;11.560;2023-10-13T00:23:57;14.50;81.40
13458;DHT22;6801;53.018;11.560;2023-10-13T00:26:28;14.50;81.50
13458;DHT22;6801;53.018;11.560;2023-10-13T00:28:59;14.50;81.50
13458;DHT22;6801;53.018;11.560;2023-10-13T00:31:35;14.40;81.60
13458;DHT22;6801;53.018;11.560;2023-10-13T00:34:05;14.50;81.50
13458;DHT22;6801;53.018;11.560;2023-10-13T00:36:37;14.50;81.50
13458;DHT22;6801;53.018;11.560;2023-10-13T00:39:13;14.50;81.60
13458;DHT22;6801;53.018;11.560;2023-10-13T00:41:42;14.50;81.60
13458;DHT22;6801;53.018;11.560;2023-10-13T00:44:24;14.50;81.80
13458;DHT22;6801;53.018;11.560;2023-10-13T00:46:54;14.40;82.00
13458;DHT22;6801;53.018;11.560;2023-10-13T00:49:23;14.40;81.90
13458;DHT22;6801;53.018;11.560;2023-10-13T00:51:51;14.50;81.80
13458;DHT22;6801;53.018;11.560;2023-10-13T00:54:19;14.50;81.80
13458;DHT22;6801;53.018;11.560;2023-10-13T00:56:52;14.40;81.70
13458;DHT22;6801;53.018;11.560;2023-10-13T00:59:30;14.50;81.60
13458;DHT22;6801;53.018;11.560;2023-10-13T01:01:59;14.50;81.50
13458;DHT22;6801;53.018;11.560;2023-10-13T01:04:48;14.50;81.40
13458;DHT22;6801;53.018;11.560;2023-10-13T01:07:14;14.50;81.50
13458;DHT22;6801;53.018;11.560;2023-10-13T01:09:42;14.50;81.70
13458;DHT22;6801;53.018;11.560;2023-10-13T01:12:08;14.50;81.80
13458;DHT22;6801;53.018;11.560;2023-10-13T01:14:35;14.50;81.70
13458;DHT22;6801;53.018;11.560;2023-10-13T01:17:02;14.50;81.60
13458;DHT22;6801;53.018;11.560;2023-10-13T01:19:29;14.50;81.60
13458;DHT22;6801;53.018;11.560;2023-10-13T01:21:57;14.50;81.60
13458;DHT22;6801;53.018;11.560;2023-10-13T01:24:29;14.50;81.50
13458;DHT22;6801;53.018;11.560;2023-10-13T01:27:00;14.50;81.70
13458;DHT22;6801;53.018;11.560;2023-10-13T01:29:43;14.50;81.60
13458;DHT22;6801;53.018;11.560;2023-10-13T01:32:13;14.40;81.80
13458;DHT22;6801;53.018;11.560;2023-10-13T01:34:41;14.50;81.90
13458;DHT22;6801;53.018;11.560;2023-10-13T01:37:11;14.50;81.80
13458;DHT22;6801;53.018;11.560;2023-10-13T01:39:40;14.50;81.70
13458;DHT22;6801;53.018;11.560;2023-10-13T01:42:06;14.50;81.80
13458;DHT22;6801;53.018;11.560;2023-10-13T01:44:33;14.50;81.80
13458;DHT22;6801;53.018;11.560;2023-10-13T01:46:59;14.50;81.80
13458;DHT22;6801;53.018;11.560;2023-10-13T01:49:31;14.50;81.70
13458;DHT22;6801;53.018;11.560;2023-10-13T01:52:07;14.50;81.80
13458;DHT22;6801;53.018;11.560;2023-10-13T01:54:37;14.50;81.90
13458;DHT22;6801;53.018;11.560;2023-10-13T01:57:07;14.50;81.90
13458;DHT22;6801;53.018;11.560;2023-10-13T01:59:39;14.50;81.90
13458;DHT22;6801;53.018;11.560;2023-10-13T02:02:09;14.60;81.90
13458;DHT22;6801;53.018;11.560;2023-10-13T02:04:38;14.50;81.80
13458;DHT22;6801;53.018;11.560;2023-10-13T02:07:08;14.50;81.80
13458;DHT22;6801;53.018;11.560;2023-10-13T02:09:39;14.50;81.80
13458;DHT22;6801;53.018;11.560;2023-10-13T02:12:07;14.60;81.80
13458;DHT22;6801;53.018;11.560;2023-10-13T02:14:35;14.50;81.80
13458;DHT22;6801;53.018;11.560;2023-10-13T02:17:02;14.60;81.70
13458;DHT22;6801;53.018;11.560;2023-10-13T02:19:38;14.60;81.80
13458;DHT22;6801;53.018;11.560;2023-10-13T02:22:05;14.60;81.90
13458;DHT22;6801;53.018;11.560;2023-10-13T02:24:35;14.60;81.80
13458;DHT22;6801;53.018;11.560;2023-10-13T02:27:07;14.60;82.00
13458;DHT22;6801;53.018;11.560;2023-10-13T02:29:39;14.60;82.00
13458;DHT22;6801;53.018;11.560;2023-10-13T02:32:06;14.60;81.70
13458;DHT22;6801;53.018;11.560;2023-10-13T02:34:38;14.60;81.90
13458;DHT22;6801;53.018;11.560;2023-10-13T02:37:09;14.60;82.00
13458;DHT22;6801;53.018;11.560;2023-10-13T02:39:36;14.60;82.00
13458;DHT22;6801;53.018;11.560;2023-10-13T02:42:08;14.60;82.00
13458;DHT22;6801;53.018;11.560;2023-10-13T02:44:48;14.70;82.10
13458;DHT22;6801;53.018;11.560;2023-10-13T02:47:14;14.70;82.20
13458;DHT22;6801;53.018;11.560;2023-10-13T02:49:41;14.70;82.20
13458;DHT22;6801;53.018;11.560;2023-10-13T02:52:09;14.70;82.10
13458;DHT22;6801;53.018;11.560;2023-10-13T02:54:36;14.70;82.20
13458;DHT22;6801;53.018;11.560;2023-10-13T02:57:07;14.70;82.20
13458;DHT22;6801;53.018;11.560;2023-10-13T02:59:35;14.70;82.20
13458;DHT22;6801;53.018;11.560;2023-10-13T03:02:06;14.70;82.30
13458;DHT22;6801;53.018;11.560;2023-10-13T03:07:10;14.70;82.50
13458;DHT22;6801;53.018;11.560;2023-10-13T03:09:41;14.70;82.50
13458;DHT22;6801;53.018;11.560;2023-10-13T03:12:17;14.70;82.50
13458;DHT22;6801;53.018;11.560;2023-10-13T03:14:44;14.70;82.40
13458;DHT22;6801;53.018;11.560;2023-10-13T03:17:13;14.80;82.50
13458;DHT22;6801;53.018;11.560;2023-10-13T03:19:43;14.70;82.60
13458;DHT22;6801;53.018;11.560;2023-10-13T03:22:16;14.80;82.70
13458;DHT22;6801;53.018;11.560;2023-10-13T03:24:43;14.80;82.80
13458;DHT22;6801;53.018;11.560;2023-10-13T03:27:12;14.80;82.80
13458;DHT22;6801;53.018;11.560;2023-10-13T03:29:44;14.80;82.70
13458;DHT22;6801;53.018;11.560;2023-10-13T03:32:11;14.80;82.60
13458;DHT22;6801;53.018;11.560;2023-10-13T03:34:39;14.80;82.70
13458;DHT22;6801;53.018;11.560;2023-10-13T03:37:19;14.80;82.80
13458;DHT22;6801;53.018;11.560;2023-10-13T03:40:01;14.80;82.80
13458;DHT22;6801;53.018;11.560;2023-10-13T03:42:32;14.80;82.90
13458;DHT22;6801;53.018;11.560;2023-10-13T03:45:00;14.90;82.90
13458;DHT22;6801;53.018;11.560;2023-10-13T03:47:28;14.80;83.00
13458;DHT22;6801;53.018;11.560;2023-10-13T03:49:58;14.90;82.90
13458;DHT22;6801;53.018;11.560;2023-10-13T03:52:39;14.90;82.90
13458;DHT22;6801;53.018;11.560;2023-10-13T03:55:06;14.90;82.90
13458;DHT22;6801;53.018;11.560;2023-10-13T03:57:41;14.90;83.20
13458;DHT22;6801;53.018;11.560;2023-10-13T04:00:11;14.90;83.20
13458;DHT22;6801;53.018;11.560;2023-10-13T04:02:47;14.90;83.10
13458;DHT22;6801;53.018;11.560;2023-10-13T04:05:20;14.90;83.20
13458;DHT22;6801;53.018;11.560;2023-10-13T04:08:02;14.90;83.30
13458;DHT22;6801;53.018;11.560;2023-10-13T04:10:56;14.90;83.30
13458;DHT22;6801;53.018;11.560;2023-10-13T04:13:40;14.90;83.30
13458;DHT22;6801;53.018;11.560;2023-10-13T04:16:31;14.90;83.20
13458;DHT22;6801;53.018;11.560;2023-10-13T04:19:01;14.90;83.20
13458;DHT22;6801;53.018;11.560;2023-10-13T04:21:36;14.90;83.30
13458;DHT22;6801;53.018;11.560;2023-10-13T04:24:20;15.00;83.60
13458;DHT22;6801;53.018;11.560;2023-10-13T04:27:05;15.00;83.60
13458;DHT22;6801;53.018;11.560;2023-10-13T04:29:49;15.00;83.60
13458;DHT22;6801;53.018;11.560;2023-10-13T04:32:28;15.00;83.40
13458;DHT22;6801;53.018;11.560;2023-10-13T04:34:55;15.00;83.90
13458;DHT22;6801;53.018;11.560;2023-10-13T04:37:34;15.00;83.80
13458;DHT22;6801;53.018;11.560;2023-10-13T04:40:15;15.00;83.90
13458;DHT22;6801;53.018;11.560;2023-10-13T04:42:43;15.00;83.90
13458;DHT22;6801;53.018;11.560;2023-10-13T04:45:19;15.00;84.00
13458;DHT22;6801;53.018;11.560;2023-10-13T04:48:10;15.00;84.10
13458;DHT22;6801;53.018;11.560;2023-10-13T04:50:44;15.00;84.00
13458;DHT22;6801;53.018;11.560;2023-10-13T04:53:13;15.00;84.00
13458;DHT22;6801;53.018;11.560;2023-10-13T04:56:00;15.00;84.10
13458;DHT22;6801;53.018;11.560;2023-10-13T04:58:54;15.00;84.20
13458;DHT22;6801;53.018;11.560;2023-10-13T05:01:38;15.10;84.00
13458;DHT22;6801;53.018;11.560;2023-10-13T05:04:23;15.10;84.00
13458;DHT22;6801;53.018;11.560;2023-10-13T05:07:04;15.10;84.10
13458;DHT22;6801;53.018;11.560;2023-10-13T05:09:49;15.10;84.20
13458;DHT22;6801;53.018;11.560;2023-10-13T05:12:34;15.10;84.30
13458;DHT22;6801;53.018;11.560;2023-10-13T05:15:19;15.10;84.10
13458;DHT22;6801;53.018;11.560;2023-10-13T05:18:04;15.10;84.30
13458;DHT22;6801;53.018;11.560;2023-10-13T05:20:51;15.20;84.50
13458;DHT22;6801;53.018;11.560;2023-10-13T05:23:39;15.20;84.40
13458;DHT22;6801;53.018;11.560;2023-10-13T05:26:24;15.20;84.40
13458;DHT22;6801;53.018;11.560;2023-10-13T05:29:08;15.20;84.40
13458;DHT22;6801;53.018;11.560;2023-10-13T05:31:49;15.20;84.50
13458;DHT22;6801;53.018;11.560;2023-10-13T05:34:34;15.20;84.90
13458;DHT22;6801;53.018;11.560;2023-10-13T05:37:20;15.20;84.70
13458;DHT22;6801;53.018;11.560;2023-10-13T05:40:04;15.20;85.00
13458;DHT22;6801;53.018;11.560;2023-10-13T05:42:49;15.20;84.60
13458;DHT22;6801;53.018;11.560;2023-10-13T05:45:35;15.20;84.70
13458;DHT22;6801;53.018;11.560;2023-10-13T05:48:27;15.20;84.50
13458;DHT22;6801;53.018;11.560;2023-10-13T05:51:18;15.20;84.50
13458;DHT22;6801;53.018;11.560;2023-10-13T05:54:11;15.30;84.60
13458;DHT22;6801;53.018;11.560;2023-10-13T05:56:56;15.30;84.60
13458;DHT22;6801;53.018;11.560;2023-10-13T05:59:41;15.30;84.70
13458;DHT22;6801;53.018;11.560;2023-10-13T06:02:27;15.20;84.70
13458;DHT22;6801;53.018;11.560;2023-10-13T06:05:13;15.20;84.70
13458;DHT22;6801;53.018;11.560;2023-10-13T06:07:58;15.30;84.60
13458;DHT22;6801;53.018;11.560;2023-10-13T06:10:44;15.30;84.70
13458;DHT22;6801;53.018;11.560;2023-10-13T06:13:29;15.30;85.00
13458;DHT22;6801;53.018;11.560;2023-10-13T06:16:15;15.30;84.90
13458;DHT22;6801;53.018;11.560;2023-10-13T06:19:00;15.30;84.80
13458;DHT22;6801;53.018;11.560;2023-10-13T06:21:45;15.30;84.80
13458;DHT22;6801;53.018;11.560;2023-10-13T06:24:30;15.30;84.80
13458;DHT22;6801;53.018;11.560;2023-10-13T06:27:17;15.40;84.90
13458;DHT22;6801;53.018;11.560;2023-10-13T06:30:02;15.30;84.90
13458;DHT22;6801;53.018;11.560;2023-10-13T06:32:30;15.40;85.00
13458;DHT22;6801;53.018;11.560;2023-10-13T06:34:59;15.40;85.10
13458;DHT22;6801;53.018;11.560;2023-10-13T06:37:31;15.40;85.60
13458;DHT22;6801;53.018;11.560;2023-10-13T06:40:01;15.40;85.50
13458;DHT22;6801;53.018;11.560;2023-10-13T06:42:34;15.50;85.80
13458;DHT22;6801;53.018;11.560;2023-10-13T06:45:04;15.50;85.90
13458;DHT22;6801;53.018;11.560;2023-10-13T06:47:34;15.50;86.20
13458;DHT22;6801;53.018;11.560;2023-10-13T06:50:06;15.60;86.20
13458;DHT22;6801;53.018;11.560;2023-10-13T06:52:41;15.50;86.30
13458;DHT22;6801;53.018;11.560;2023-10-13T06:55:08;15.60;86.30
13458;DHT22;6801;53.018;11.560;2023-10-13T06:57:38;15.60;86.30
13458;DHT22;6801;53.018;11.560;2023-10-13T07:00:09;15.60;86.60
13458;DHT22;6801;53.018;11.560;2023-10-13T07:02:45;15.70;86.80
13458;DHT22;6801;53.018;11.560;2023-10-13T07:05:13;15.70;87.10
13458;DHT22;6801;53.018;11.560;2023-10-13T07:07:41;15.70;86.80
13458;DHT22;6801;53.018;11.560;2023-10-13T07:10:09;15.70;87.00
13458;DHT22;6801;53.018;11.560;2023-10-13T07:12:38;15.80;86.90
13458;DHT22;6801;53.018;11.560;2023-10-13T07:15:10;15.80;86.90
13458;DHT22;6801;53.018;11.560;2023-10-13T07:17:45;15.80;86.70
13458;DHT22;6801;53.018;11.560;2023-10-13T07:20:13;15.90;87.10
13458;DHT22;6801;53.018;11.560;2023-10-13T07:22:49;15.90;86.80
13458;DHT22;6801;53.018;11.560;2023-10-13T07:25:23;15.90;86.80
13458;DHT22;6801;53.018;11.560;2023-10-13T07:27:53;15.90;86.80
13458;DHT22;6801;53.018;11.560;2023-10-13T07:30:22;16.00;86.80
13458;DHT22;6801;53.018;11.560;2023-10-13T07:32:52;16.00;86.70
13458;DHT22;6801;53.018;11.560;2023-10-13T07:35:23;16.00;87.20
13458;DHT22;6801;53.018;11.560;2023-10-13T07:37:51;16.00;86.70
13458;DHT22;6801;53.018;11.560;2023-10-13T07:40:19;16.00;86.50
13458;DHT22;6801;53.018;11.560;2023-10-13T07:43:06;16.00;86.50
13458;DHT22;6801;53.018;11.560;2023-10-13T07:45:37;16.10;86.50
13458;DHT22;6801;53.018;11.560;2023-10-13T07:48:05;16.10;86.30
13458;DHT22;6801;53.018;11.560;2023-10-13T07:50:38;16.10;86.40
13458;DHT22;6801;53.018;11.560;2023-10-13T07:53:05;16.10;86.60
13458;DHT22;6801;53.018;11.560;2023-10-13T07:55:45;16.10;86.90
13458;DHT22;6801;53.018;11.560;2023-10-13T07:58:15;16.10;86.70
13458;DHT22;6801;53.018;11.560;2023-10-13T08:00:42;16.10;86.80
13458;DHT22;6801;53.018;11.560;2023-10-13T08:03:19;16.20;86.90
13458;DHT22;6801;53.018;11.560;2023-10-13T08:06:00;16.20;87.20
13458;DHT22;6801;53.018;11.560;2023-10-13T08:08:32;16.10;87.00
13458;DHT22;6801;53.018;11.560;2023-10-13T08:11:05;16.20;87.10
13458;DHT22;6801;53.018;11.560;2023-10-13T08:13:52;16.20;87.00
13458;DHT22;6801;53.018;11.560;2023-10-13T08:16:22;16.20;86.90
13458;DHT22;6801;53.018;11.560;2023-10-13T08:18:55;16.20;86.90
13458;DHT22;6801;53.018;11.560;2023-10-13T08:21:22;16.30;86.80
13458;DHT22;6801;53.018;11.560;2023-10-13T08:23:49;16.30;86.80
13458;DHT22;6801;53.018;11.560;2023-10-13T08:26:32;16.30;86.80
13458;DHT22;6801;53.018;11.560;2023-10-13T08:29:21;16.30;86.80
13458;DHT22;6801;53.018;11.560;2023-10-13T08:32:05;16.30;87.00
13458;DHT22;6801;53.018;11.560;2023-10-13T08:34:49;16.30;86.80
13458;DHT22;6801;53.018;11.560;2023-10-13T08:37:36;16.40;86.60
13458;DHT22;6801;53.018;11.560;2023-10-13T08:40:23;16.40;86.50
13458;DHT22;6801;53.018;11.560;2023-10-13T08:43:10;16.40;86.60
13458;DHT22;6801;53.018;11.560;2023-10-13T08:45:40;16.40;86.70
13458;DHT22;6801;53.018;11.560;2023-10-13T08:48:20;16.40;86.70
13458;DHT22;6801;53.018;11.560;2023-10-13T08:50:57;16.50;86.40
13458;DHT22;6801;53.018;11.560;2023-10-13T08:53:31;16.50;86.30
13458;DHT22;6801;53.018;11.560;2023-10-13T08:56:01;16.50;86.40
13458;DHT22;6801;53.018;11.560;2023-10-13T08:58:33;16.50;86.40
13458;DHT22;6801;53.018;11.560;2023-10-13T09:01:19;16.50;86.30
13458;DHT22;6801;53.018;11.560;2023-10-13T09:04:15;16.50;86.40
13458;DHT22;6801;53.018;11.560;2023-10-13T09:06:49;16.60;86.80
13458;DHT22;6801;53.018;11.560;2023-10-13T09:09:45;16.60;87.00
13458;DHT22;6801;53.018;11.560;2023-10-13T09:12:58;16.60;86.70
13458;DHT22;6801;53.018;11.560;2023-10-13T09:15:30;16.60;87.00
13458;DHT22;6801;53.018;11.560;2023-10-13T09:18:23;16.70;87.50
13458;DHT22;6801;53.018;11.560;2023-10-13T09:21:09;16.70;87.80
13458;DHT22;6801;53.018;11.560;2023-10-13T09:23:53;16.70;87.40
13458;DHT22;6801;53.018;11.560;2023-10-13T09:26:40;16.70;87.10
13458;DHT22;6801;53.018;11.560;2023-10-13T09:29:15;16.70;86.90
13458;DHT22;6801;53.018;11.560;2023-10-13T09:31:45;16.80;87.40
13458;DHT22;6801;53.018;11.560;2023-10-13T09:34:20;16.80;87.20
13458;DHT22;6801;53.018;11.560;2023-10-13T09:36:50;16.80;87.80
13458;DHT22;6801;53.018;11.560;2023-10-13T09:39:25;16.80;88.00
13458;DHT22;6801;53.018;11.560;2023-10-13T09:42:01;16.80;87.40
13458;DHT22;6801;53.018;11.560;2023-10-13T09:44:27;16.80;87.00
13458;DHT22;6801;53.018;11.560;2023-10-13T09:47:01;16.90;87.50
13458;DHT22;6801;53.018;11.560;2023-10-13T09:49:39;16.90;87.00
13458;DHT22;6801;53.018;11.560;2023-10-13T09:52:17;17.00;87.70
13458;DHT22;6801;53.018;11.560;2023-10-13T09:54:58;17.00;87.90
13458;DHT22;6801;53.018;11.560;2023-10-13T09:57:33;16.90;87.80
13458;DHT22;6801;53.018;11.560;2023-10-13T10:00:09;16.90;87.50
13458;DHT22;6801;53.018;11.560;2023-10-13T10:03:00;16.90;87.60
13458;DHT22;6801;53.018;11.560;2023-10-13T10:05:41;17.00;88.00
13458;DHT22;6801;53.018;11.560;2023-10-13T10:08:25;17.00;88.50
13458;DHT22;6801;53.018;11.560;2023-10-13T10:11:07;17.00;88.00
13458;DHT22;6801;53.018;11.560;2023-10-13T10:13:39;17.00;87.70
13458;DHT22;6801;53.018;11.560;2023-10-13T10:16:11;17.00;87.70
13458;DHT22;6801;53.018;11.560;2023-10-13T10:18:41;17.10;87.20
13458;DHT22;6801;53.018;11.560;2023-10-13T10:21:08;17.10;87.80
13458;DHT22;6801;53.018;11.560;2023-10-13T10:23:52;17.10;87.60
13458;DHT22;6801;53.018;11.560;2023-10-13T10:26:19;17.10;87.90
13458;DHT22;6801;53.018;11.560;2023-10-13T10:28:47;17.10;87.10
13458;DHT22;6801;53.018;11.560;2023-10-13T10:31:14;17.20;87.50
13458;DHT22;6801;53.018;11.560;2023-10-13T10:33:43;17.20;87.00
13458;DHT22;6801;53.018;11.560;2023-10-13T10:36:12;17.20;87.20
13458;DHT22;6801;53.018;11.560;2023-10-13T10:38:53;17.30;88.00
13458;DHT22;6801;53.018;11.560;2023-10-13T10:41:28;17.30;87.10
13458;DHT22;6801;53.018;11.560;2023-10-13T10:44:11;17.40;87.00
13458;DHT22;6801;53.018;11.560;2023-10-13T10:46:48;17.40;87.60
13458;DHT22;6801;53.018;11.560;2023-10-13T10:49:23;17.50;87.60
13458;DHT22;6801;53.018;11.560;2023-10-13T10:51:58;17.50;87.60
13458;DHT22;6801;53.018;11.560;2023-10-13T10:54:31;17.50;87.10
13458;DHT22;6801;53.018;11.560;2023-10-13T10:56:58;17.50;87.20
13458;DHT22;6801;53.018;11.560;2023-10-13T10:59:38;17.60;87.20
13458;DHT22;6801;53.018;11.560;2023-10-13T11:02:06;17.70;86.60
13458;DHT22;6801;53.018;11.560;2023-10-13T11:04:35;17.70;86.60
13458;DHT22;6801;53.018;11.560;2023-10-13T11:07:07;17.70;87.00
13458;DHT22;6801;53.018;11.560;2023-10-13T11:09:36;17.80;87.20
13458;DHT22;6801;53.018;11.560;2023-10-13T11:12:13;17.80;87.70
13458;DHT22;6801;53.018;11.560;2023-10-13T11:15:00;17.90;87.70
13458;DHT22;6801;53.018;11.560;2023-10-13T11:17:27;17.90;88.00
13458;DHT22;6801;53.018;11.560;2023-10-13T11:20:09;18.00;87.30
13458;DHT22;6801;53.018;11.560;2023-10-13T11:22:45;18.00;88.40
13458;DHT22;6801;53.018;11.560;2023-10-13T11:25:22;18.10;87.40
13458;DHT22;6801;53.018;11.560;2023-10-13T11:27:55;18.20;88.70
13458;DHT22;6801;53.018;11.560;2023-10-13T11:30:24;18.30;87.90
13458;DHT22;6801;53.018;11.560;2023-10-13T11:32:59;18.40;88.00
13458;DHT22;6801;53.018;11.560;2023-10-13T11:35:26;18.50;88.30
13458;DHT22;6801;53.018;11.560;2023-10-13T11:38:14;18.50;87.70
13458;DHT22;6801;53.018;11.560;2023-10-13T11:40:53;18.60;87.60
13458;DHT22;6801;53.018;11.560;2023-10-13T11:43:34;18.70;87.40
13458;DHT22;6801;53.018;11.560;2023-10-13T11:46:19;18.70;87.00
13458;DHT22;6801;53.018;11.560;2023-10-13T11:49:06;18.80;87.30
13458;DHT22;6801;53.018;11.560;2023-10-13T11:51:44;18.90;86.80
13458;DHT22;6801;53.018;11.560;2023-10-13T11:54:12;19.00;86.80
13458;DHT22;6801;53.018;11.560;2023-10-13T11:56:40;19.00;85.80
13458;DHT22;6801;53.018;11.560;2023-10-13T11:59:08;19.00;86.00
13458;DHT22;6801;53.018;11.560;2023-10-13T12:01:43;19.10;85.80
13458;DHT22;6801;53.018;11.560;2023-10-13T12:04:27;19.10;85.80
13458;DHT22;6801;53.018;11.560;2023-10-13T12:07:06;19.20;85.70
13458;DHT22;6801;53.018;11.560;2023-10-13T12:09:46;19.20;85.40
13458;DHT22;6801;53.018;11.560;2023-10-13T12:12:30;19.20;85.30
13458;DHT22;6801;53.018;11.560;2023-10-13T12:15:06;19.30;85.20
13458;DHT22;6801;53.018;11.560;2023-10-13T12:17:39;19.30;85.20
13458;DHT22;6801;53.018;11.560;2023-10-13T12:20:11;19.40;85.00
13458;DHT22;6801;53.018;11.560;2023-10-13T12:22:50;19.40;85.20
13458;DHT22;6801;53.018;11.560;2023-10-13T12:25:21;19.40;85.20
13458;DHT22;6801;53.018;11.560;2023-10-13T12:28:11;19.40;85.00
13458;DHT22;6801;53.018;11.560;2023-10-13T12:30:44;19.50;84.90
13458;DHT22;6801;53.018;11.560;2023-10-13T12:33:18;19.50;84.80
13458;DHT22;6801;53.018;11.560;2023-10-13T12:35:56;19.50;84.30
13458;DHT22;6801;53.018;11.560;2023-10-13T12:38:56;19.50;84.50
13458;DHT22;6801;53.018;11.560;2023-10-13T12:41:40;19.70;84.00
13458;DHT22;6801;53.018;11.560;2023-10-13T12:44:26;19.70;83.90
13458;DHT22;6801;53.018;11.560;2023-10-13T12:47:10;19.70;84.10
13458;DHT22;6801;53.018;11.560;2023-10-13T12:49:56;19.70;83.90
13458;DHT22;6801;53.018;11.560;2023-10-13T12:52:32;19.70;84.10
13458;DHT22;6801;53.018;11.560;2023-10-13T12:55:00;19.80;84.00
13458;DHT22;6801;53.018;11.560;2023-10-13T12:57:35;19.90;83.70
13458;DHT22;6801;53.018;11.560;2023-10-13T13:00:11;20.00;82.90
13458;DHT22;6801;53.018;11.560;2023-10-13T13:02:49;20.10;82.70
13458;DHT22;6801;53.018;11.560;2023-10-13T13:05:18;20.10;82.60
13458;DHT22;6801;53.018;11.560;2023-10-13T13:07:48;20.20;82.30
13458;DHT22;6801;53.018;11.560;2023-10-13T13:10:19;20.20;81.80
13458;DHT22;6801;53.018;11.560;2023-10-13T13:12:54;20.30;81.60
13458;DHT22;6801;53.018;11.560;2023-10-13T13:15:23;20.40;81.30
13458;DHT22;6801;53.018;11.560;2023-10-13T13:17:50;20.40;80.90
13458;DHT22;6801;53.018;11.560;2023-10-13T13:20:17;20.50;81.10
13458;DHT22;6801;53.018;11.560;2023-10-13T13:22:54;20.50;81.00
13458;DHT22;6801;53.018;11.560;2023-10-13T13:25:21;20.50;81.00
13458;DHT22;6801;53.018;11.560;2023-10-13T13:27:55;20.50;80.90
13458;DHT22;6801;53.018;11.560;2023-10-13T13:30:25;20.60;80.40
13458;DHT22;6801;53.018;11.560;2023-10-13T13:32:58;20.60;80.00
13458;DHT22;6801;53.018;11.560;2023-10-13T13:35:29;20.70;78.90
13458;DHT22;6801;53.018;11.560;2023-10-13T13:38:00;20.70;78.20
13458;DHT22;6801;53.018;11.560;2023-10-13T13:40:37;20.70;78.60
13458;DHT22;6801;53.018;11.560;2023-10-13T13:43:04;20.80;78.60
13458;DHT22;6801;53.018;11.560;2023-10-13T13:45:33;20.90;77.00
13458;DHT22;6801;53.018;11.560;2023-10-13T13:48:07;20.90;77.30
13458;DHT22;6801;53.018;11.560;2023-10-13T13:50:41;20.80;77.00
13458;DHT22;6801;53.018;11.560;2023-10-13T13:53:10;20.90;77.00
13458;DHT22;6801;53.018;11.560;2023-10-13T13:55:37;20.80;77.40
13458;DHT22;6801;53.018;11.560;2023-10-13T13:58:05;20.80;78.30
13458;DHT22;6801;53.018;11.560;2023-10-13T14:00:37;20.80;77.70
13458;DHT22;6801;53.018;11.560;2023-10-13T14:03:06;20.80;76.80
13458;DHT22;6801;53.018;11.560;2023-10-13T14:05:41;20.80;76.80
13458;DHT22;6801;53.018;11.560;2023-10-13T14:08:08;20.70;76.90
13458;DHT22;6801;53.018;11.560;2023-10-13T14:10:37;20.70;76.40
13458;DHT22;6801;53.018;11.560;2023-10-13T14:13:18;20.70;77.80
13458;DHT22;6801;53.018;11.560;2023-10-13T14:15:49;20.70;78.00
13458;DHT22;6801;53.018;11.560;2023-10-13T14:18:22;20.70;77.30
13458;DHT22;6801;53.018;11.560;2023-10-13T14:20:56;20.70;76.70
13458;DHT22;6801;53.018;11.560;2023-10-13T14:23:28;20.70;77.70
13458;DHT22;6801;53.018;11.560;2023-10-13T14:25:55;20.70;77.40
13458;DHT22;6801;53.018;11.560;2023-10-13T14:28:23;20.70;77.00
13458;DHT22;6801;53.018;11.560;2023-10-13T14:31:04;20.60;77.10
13458;DHT22;6801;53.018;11.560;2023-10-13T14:33:35;20.70;77.20
13458;DHT22;6801;53.018;11.560;2023-10-13T14:36:03;20.60;76.60
13458;DHT22;6801;53.018;11.560;2023-10-13T14:38:30;20.60;76.50
13458;DHT22;6801;53.018;11.560;2023-10-13T14:40:57;20.60;76.50
13458;DHT22;6801;53.018;11.560;2023-10-13T14:43:24;20.60;76.20
13458;DHT22;6801;53.018;11.560;2023-10-13T14:45:53;20.60;76.00
13458;DHT22;6801;53.018;11.560;2023-10-13T14:48:21;20.60;76.00
13458;DHT22;6801;53.018;11.560;2023-10-13T14:50:50;20.60;76.10
13458;DHT22;6801;53.018;11.560;2023-10-13T14:53:17;20.60;75.30
13458;DHT22;6801;53.018;11.560;2023-10-13T14:55:47;20.60;75.70
13458;DHT22;6801;53.018;11.560;2023-10-13T14:58:17;20.60;75.50
13458;DHT22;6801;53.018;11.560;2023-10-13T15:00:44;20.60;75.50
13458;DHT22;6801;53.018;11.560;2023-10-13T15:03:11;20.60;74.70
13458;DHT22;6801;53.018;11.560;2023-10-13T15:05:40;20.70;74.80
13458;DHT22;6801;53.018;11.560;2023-10-13T15:08:09;20.70;74.90
13458;DHT22;6801;53.018;11.560;2023-10-13T15:10:36;20.70;75.10
13458;DHT22;6801;53.018;11.560;2023-10-13T15:13:03;20.60;74.60
13458;DHT22;6801;53.018;11.560;2023-10-13T15:15:30;20.60;74.60
13458;DHT22;6801;53.018;11.560;2023-10-13T15:17:58;20.60;75.00
13458;DHT22;6801;53.018;11.560;2023-10-13T15:20:26;20.60;74.40
13458;DHT22;6801;53.018;11.560;2023-10-13T15:22:55;20.60;75.20
13458;DHT22;6801;53.018;11.560;2023-10-13T15:25:26;20.60;74.10
13458;DHT22;6801;53.018;11.560;2023-10-13T15:28:00;20.70;74.20
13458;DHT22;6801;53.018;11.560;2023-10-13T15:30:29;20.70;74.10
13458;DHT22;6801;53.018;11.560;2023-10-13T15:33:08;20.80;74.70
13458;DHT22;6801;53.018;11.560;2023-10-13T15:35:38;20.80;73.90
13458;DHT22;6801;53.018;11.560;2023-10-13T15:38:06;20.70;74.20
13458;DHT22;6801;53.018;11.560;2023-10-13T15:40:33;20.70;73.80
13458;DHT22;6801;53.018;11.560;2023-10-13T15:43:07;20.80;73.50
13458;DHT22;6801;53.018;11.560;2023-10-13T15:45:35;20.80;73.60
13458;DHT22;6801;53.018;11.560;2023-10-13T15:48:08;20.80;73.90
13458;DHT22;6801;53.018;11.560;2023-10-13T15:50:38;20.80;73.60
13458;DHT22;6801;53.018;11.560;2023-10-13T15:53:08;20.80;73.00
13458;DHT22;6801;53.018;11.560;2023-10-13T15:55:38;20.80;73.70
13458;DHT22;6801;53.018;11.560;2023-10-13T15:58:05;20.80;73.20
13458;DHT22;6801;53.018;11.560;2023-10-13T16:00:34;20.80;73.00
13458;DHT22;6801;53.018;11.560;2023-10-13T16:03:02;20.80;71.50
13458;DHT22;6801;53.018;11.560;2023-10-13T16:05:37;20.80;72.40
13458;DHT22;6801;53.018;11.560;2023-10-13T16:08:07;20.80;72.40
13458;DHT22;6801;53.018;11.560;2023-10-13T16:10:38;20.70;72.50
13458;DHT22;6801;53.018;11.560;2023-10-13T16:13:05;20.70;72.60
13458;DHT22;6801;53.018;11.560;2023-10-13T16:15:36;20.70;72.50
13458;DHT22;6801;53.018;11.560;2023-10-13T16:18:08;20.70;72.80